sensor_id;sensor_type;location;lat;lon;timestamp;P1;durP1;ratioP1;P2;durP2;ratioP2
75437;SDS011;64015;49.392;15.582;2023-01-31T00:01:21;6.07;;;1.20;;
75437;SDS011;64015;49.392;15.582;2023-01-31T00:03:55;3.85;;;1.30;;
75437;SDS011;64015;49.392;15.582;2023-01-31T00:11:30;3.30;;;1.10;;
75437;SDS011;64015;49.392;15.582;2023-01-31T00:13:58;4.85;;;1.60;;
75437;SDS011;64015;49.392;15.582;2023-01-31T00:16:24;3.17;;;0.85;;
75437;SDS011;64015;49.392;15.582;2023-01-31T00:18:50;5.72;;;0.98;;
75437;SDS011;64015;49.392;15.582;2023-01-31T00:21:17;2.60;;;0.60;;
75437;SDS011;64015;49.392;15.582;2023-01-31T00:23:46;2.25;;;0.82;;
75437;SDS011;64015;49.392;15.582;2023-01-31T00:26:16;2.35;;;0.77;;
75437;SDS011;64015;49.392;15.582;2023-01-31T00:28:45;3.40;;;0.60;;
75437;SDS011;64015;49.392;15.582;2023-01-31T00:31:12;8.95;;;1.02;;
75437;SDS011;64015;49.392;15.582;2023-01-31T00:33:40;4.10;;;0.80;;
75437;SDS011;64015;49.392;15.582;2023-01-31T00:36:08;4.05;;;0.80;;
75437;SDS011;64015;49.392;15.582;2023-01-31T00:38:36;2.90;;;0.73;;
75437;SDS011;64015;49.392;15.582;2023-01-31T00:41:02;2.65;;;0.55;;
75437;SDS011;64015;49.392;15.582;2023-01-31T00:43:29;1.33;;;0.45;;
75437;SDS011;64015;49.392;15.582;2023-01-31T00:45:55;1.23;;;0.43;;
75437;SDS011;64015;49.392;15.582;2023-01-31T00:48:21;3.05;;;0.70;;
75437;SDS011;64015;49.392;15.582;2023-01-31T00:50:47;2.75;;;0.63;;
75437;SDS011;64015;49.392;15.582;2023-01-31T00:53:13;7.55;;;0.90;;
75437;SDS011;64015;49.392;15.582;2023-01-31T00:55:39;1.75;;;0.55;;
75437;SDS011;64015;49.392;15.582;2023-01-31T00:58:05;2.35;;;0.60;;
75437;SDS011;64015;49.392;15.582;2023-01-31T01:00:31;1.55;;;0.52;;
75437;SDS011;64015;49.392;15.582;2023-01-31T01:02:57;1.75;;;0.60;;
75437;SDS011;64015;49.392;15.582;2023-01-31T01:05:22;2.75;;;0.73;;
75437;SDS011;64015;49.392;15.582;2023-01-31T01:07:48;2.47;;;0.55;;
75437;SDS011;64015;49.392;15.582;2023-01-31T01:10:14;2.58;;;0.60;;
75437;SDS011;64015;49.392;15.582;2023-01-31T01:12:40;2.78;;;0.65;;
75437;SDS011;64015;49.392;15.582;2023-01-31T01:15:05;1.67;;;0.82;;
75437;SDS011;64015;49.392;15.582;2023-01-31T01:17:31;2.28;;;0.55;;
75437;SDS011;64015;49.392;15.582;2023-01-31T01:20:00;4.38;;;1.15;;
75437;SDS011;64015;49.392;15.582;2023-01-31T01:22:28;2.50;;;0.57;;
75437;SDS011;64015;49.392;15.582;2023-01-31T01:24:55;6.57;;;0.60;;
75437;SDS011;64015;49.392;15.582;2023-01-31T01:27:20;2.35;;;0.70;;
75437;SDS011;64015;49.392;15.582;2023-01-31T01:29:46;1.25;;;0.52;;
75437;SDS011;64015;49.392;15.582;2023-01-31T01:32:12;7.70;;;0.75;;
75437;SDS011;64015;49.392;15.582;2023-01-31T01:34:37;2.30;;;0.40;;
75437;SDS011;64015;49.392;15.582;2023-01-31T01:37:03;1.42;;;0.22;;
75437;SDS011;64015;49.392;15.582;2023-01-31T01:39:36;1.33;;;0.20;;
75437;SDS011;64015;49.392;15.582;2023-01-31T01:42:05;5.68;;;0.70;;
75437;SDS011;64015;49.392;15.582;2023-01-31T01:44:42;5.63;;;0.70;;
75437;SDS011;64015;49.392;15.582;2023-01-31T01:53:00;0.45;;;0.20;;
75437;SDS011;64015;49.392;15.582;2023-01-31T01:55:34;2.70;;;0.40;;
75437;SDS011;64015;49.392;15.582;2023-01-31T01:58:11;1.60;;;0.40;;
75437;SDS011;64015;49.392;15.582;2023-01-31T02:00:41;0.47;;;0.15;;
75437;SDS011;64015;49.392;15.582;2023-01-31T02:03:09;1.58;;;0.60;;
75437;SDS011;64015;49.392;15.582;2023-01-31T02:05:57;1.45;;;0.57;;
75437;SDS011;64015;49.392;15.582;2023-01-31T02:08:24;2.22;;;0.85;;
75437;SDS011;64015;49.392;15.582;2023-01-31T02:11:35;2.03;;;1.13;;
75437;SDS011;64015;49.392;15.582;2023-01-31T02:13:47;7.45;;;1.17;;
75437;SDS011;64015;49.392;15.582;2023-01-31T02:16:15;3.22;;;0.65;;
75437;SDS011;64015;49.392;15.582;2023-01-31T02:18:41;4.13;;;1.20;;
75437;SDS011;64015;49.392;15.582;2023-01-31T02:24:27;4.70;;;1.00;;
75437;SDS011;64015;49.392;15.582;2023-01-31T02:30:20;4.32;;;0.98;;
75437;SDS011;64015;49.392;15.582;2023-01-31T02:35:48;4.55;;;0.90;;
75437;SDS011;64015;49.392;15.582;2023-01-31T02:44:00;4.45;;;1.02;;
75437;SDS011;64015;49.392;15.582;2023-01-31T02:46:59;7.00;;;1.10;;
75437;SDS011;64015;49.392;15.582;2023-01-31T02:52:20;3.38;;;1.02;;
75437;SDS011;64015;49.392;15.582;2023-01-31T02:54:59;4.22;;;1.20;;
75437;SDS011;64015;49.392;15.582;2023-01-31T02:57:52;3.10;;;0.52;;
75437;SDS011;64015;49.392;15.582;2023-01-31T03:00:19;2.22;;;0.73;;
75437;SDS011;64015;49.392;15.582;2023-01-31T03:02:47;2.83;;;0.57;;
75437;SDS011;64015;49.392;15.582;2023-01-31T03:05:13;2.15;;;0.60;;
75437;SDS011;64015;49.392;15.582;2023-01-31T03:07:41;3.72;;;0.90;;
75437;SDS011;64015;49.392;15.582;2023-01-31T03:18:20;2.03;;;0.70;;
75437;SDS011;64015;49.392;15.582;2023-01-31T03:23:56;1.98;;;0.77;;
75437;SDS011;64015;49.392;15.582;2023-01-31T03:26:23;1.30;;;0.45;;
75437;SDS011;64015;49.392;15.582;2023-01-31T03:28:50;5.32;;;0.47;;
75437;SDS011;64015;49.392;15.582;2023-01-31T03:31:25;3.30;;;0.60;;
75437;SDS011;64015;49.392;15.582;2023-01-31T03:33:58;2.45;;;0.25;;
75437;SDS011;64015;49.392;15.582;2023-01-31T03:47:13;1.58;;;0.55;;
75437;SDS011;64015;49.392;15.582;2023-01-31T03:49:44;0.73;;;0.25;;
75437;SDS011;64015;49.392;15.582;2023-01-31T03:52:12;2.35;;;0.32;;
75437;SDS011;64015;49.392;15.582;2023-01-31T03:54:47;1.98;;;0.80;;
75437;SDS011;64015;49.392;15.582;2023-01-31T03:57:22;1.60;;;0.50;;
75437;SDS011;64015;49.392;15.582;2023-01-31T03:59:51;2.00;;;0.47;;
75437;SDS011;64015;49.392;15.582;2023-01-31T04:02:20;2.38;;;0.60;;
75437;SDS011;64015;49.392;15.582;2023-01-31T04:07:46;2.40;;;0.75;;
75437;SDS011;64015;49.392;15.582;2023-01-31T04:10:14;2.05;;;0.63;;
75437;SDS011;64015;49.392;15.582;2023-01-31T04:12:42;2.33;;;0.60;;
75437;SDS011;64015;49.392;15.582;2023-01-31T04:15:09;3.65;;;0.85;;
75437;SDS011;64015;49.392;15.582;2023-01-31T04:17:35;1.65;;;0.73;;
75437;SDS011;64015;49.392;15.582;2023-01-31T04:20:01;5.78;;;0.68;;
75437;SDS011;64015;49.392;15.582;2023-01-31T04:22:26;2.15;;;1.02;;
75437;SDS011;64015;49.392;15.582;2023-01-31T04:24:52;1.40;;;0.63;;
75437;SDS011;64015;49.392;15.582;2023-01-31T04:27:18;3.00;;;0.60;;
75437;SDS011;64015;49.392;15.582;2023-01-31T04:29:44;2.50;;;0.73;;
75437;SDS011;64015;49.392;15.582;2023-01-31T04:32:09;1.95;;;0.57;;
75437;SDS011;64015;49.392;15.582;2023-01-31T04:34:35;2.70;;;0.57;;
75437;SDS011;64015;49.392;15.582;2023-01-31T04:37:00;2.63;;;0.85;;
75437;SDS011;64015;49.392;15.582;2023-01-31T04:39:26;2.42;;;0.40;;
75437;SDS011;64015;49.392;15.582;2023-01-31T04:41:52;6.60;;;0.60;;
75437;SDS011;64015;49.392;15.582;2023-01-31T04:44:18;3.15;;;0.93;;
75437;SDS011;64015;49.392;15.582;2023-01-31T04:46:43;3.53;;;0.80;;
75437;SDS011;64015;49.392;15.582;2023-01-31T04:49:11;1.98;;;0.88;;
75437;SDS011;64015;49.392;15.582;2023-01-31T04:51:37;4.22;;;0.80;;
75437;SDS011;64015;49.392;15.582;2023-01-31T04:54:03;2.25;;;0.52;;
75437;SDS011;64015;49.392;15.582;2023-01-31T04:56:29;3.08;;;0.95;;
75437;SDS011;64015;49.392;15.582;2023-01-31T04:58:56;4.57;;;0.90;;
75437;SDS011;64015;49.392;15.582;2023-01-31T05:01:22;2.20;;;0.52;;
75437;SDS011;64015;49.392;15.582;2023-01-31T05:03:48;1.77;;;0.93;;
75437;SDS011;64015;49.392;15.582;2023-01-31T05:06:13;3.08;;;0.90;;
75437;SDS011;64015;49.392;15.582;2023-01-31T05:08:39;5.05;;;0.52;;
75437;SDS011;64015;49.392;15.582;2023-01-31T05:11:05;3.22;;;0.80;;
75437;SDS011;64015;49.392;15.582;2023-01-31T05:13:31;9.68;;;1.05;;
75437;SDS011;64015;49.392;15.582;2023-01-31T05:15:58;5.53;;;1.20;;
75437;SDS011;64015;49.392;15.582;2023-01-31T05:18:24;3.20;;;0.88;;
75437;SDS011;64015;49.392;15.582;2023-01-31T05:20:50;4.00;;;0.65;;
75437;SDS011;64015;49.392;15.582;2023-01-31T05:23:16;2.28;;;0.80;;
75437;SDS011;64015;49.392;15.582;2023-01-31T05:25:42;1.23;;;0.40;;
75437;SDS011;64015;49.392;15.582;2023-01-31T05:28:10;4.13;;;1.00;;
75437;SDS011;64015;49.392;15.582;2023-01-31T05:30:35;1.33;;;0.47;;
75437;SDS011;64015;49.392;15.582;2023-01-31T05:33:02;2.58;;;0.40;;
75437;SDS011;64015;49.392;15.582;2023-01-31T05:35:27;3.72;;;0.70;;
75437;SDS011;64015;49.392;15.582;2023-01-31T05:37:53;1.33;;;0.50;;
75437;SDS011;64015;49.392;15.582;2023-01-31T05:40:19;1.83;;;0.40;;
75437;SDS011;64015;49.392;15.582;2023-01-31T05:42:53;2.58;;;0.50;;
75437;SDS011;64015;49.392;15.582;2023-01-31T05:45:19;4.75;;;0.95;;
75437;SDS011;64015;49.392;15.582;2023-01-31T05:47:45;2.80;;;1.13;;
75437;SDS011;64015;49.392;15.582;2023-01-31T05:50:11;3.22;;;0.50;;
75437;SDS011;64015;49.392;15.582;2023-01-31T05:52:37;1.45;;;0.50;;
75437;SDS011;64015;49.392;15.582;2023-01-31T05:55:03;1.33;;;0.35;;
75437;SDS011;64015;49.392;15.582;2023-01-31T05:57:29;2.78;;;0.47;;
75437;SDS011;64015;49.392;15.582;2023-01-31T05:59:55;1.35;;;0.43;;
75437;SDS011;64015;49.392;15.582;2023-01-31T06:02:21;1.27;;;0.25;;
75437;SDS011;64015;49.392;15.582;2023-01-31T06:04:46;2.70;;;0.85;;
75437;SDS011;64015;49.392;15.582;2023-01-31T06:07:13;2.13;;;0.70;;
75437;SDS011;64015;49.392;15.582;2023-01-31T06:09:39;4.70;;;1.00;;
75437;SDS011;64015;49.392;15.582;2023-01-31T06:12:07;4.72;;;0.88;;
75437;SDS011;64015;49.392;15.582;2023-01-31T06:14:38;3.05;;;0.93;;
75437;SDS011;64015;49.392;15.582;2023-01-31T06:17:03;2.83;;;0.77;;
75437;SDS011;64015;49.392;15.582;2023-01-31T06:19:29;2.65;;;0.88;;
75437;SDS011;64015;49.392;15.582;2023-01-31T06:21:55;1.83;;;0.63;;
75437;SDS011;64015;49.392;15.582;2023-01-31T06:24:20;3.85;;;0.63;;
75437;SDS011;64015;49.392;15.582;2023-01-31T06:26:46;2.38;;;0.60;;
75437;SDS011;64015;49.392;15.582;2023-01-31T06:29:11;2.53;;;0.68;;
75437;SDS011;64015;49.392;15.582;2023-01-31T06:31:37;1.52;;;0.52;;
75437;SDS011;64015;49.392;15.582;2023-01-31T06:34:03;1.50;;;0.52;;
75437;SDS011;64015;49.392;15.582;2023-01-31T06:36:32;2.33;;;0.85;;
75437;SDS011;64015;49.392;15.582;2023-01-31T06:38:58;1.80;;;0.43;;
75437;SDS011;64015;49.392;15.582;2023-01-31T06:41:24;5.10;;;0.60;;
75437;SDS011;64015;49.392;15.582;2023-01-31T06:43:49;2.30;;;0.85;;
75437;SDS011;64015;49.392;15.582;2023-01-31T06:46:16;2.17;;;0.70;;
75437;SDS011;64015;49.392;15.582;2023-01-31T06:48:41;1.00;;;0.50;;
75437;SDS011;64015;49.392;15.582;2023-01-31T06:51:08;3.13;;;0.57;;
75437;SDS011;64015;49.392;15.582;2023-01-31T06:53:34;4.55;;;1.00;;
75437;SDS011;64015;49.392;15.582;2023-01-31T06:56:00;2.80;;;0.70;;
75437;SDS011;64015;49.392;15.582;2023-01-31T06:58:25;2.55;;;0.52;;
75437;SDS011;64015;49.392;15.582;2023-01-31T07:00:52;3.83;;;0.70;;
75437;SDS011;64015;49.392;15.582;2023-01-31T07:03:18;3.58;;;0.82;;
75437;SDS011;64015;49.392;15.582;2023-01-31T07:05:44;1.95;;;0.63;;
75437;SDS011;64015;49.392;15.582;2023-01-31T07:08:10;1.98;;;0.60;;
75437;SDS011;64015;49.392;15.582;2023-01-31T07:10:36;1.83;;;0.45;;
75437;SDS011;64015;49.392;15.582;2023-01-31T07:13:01;5.50;;;0.90;;
75437;SDS011;64015;49.392;15.582;2023-01-31T07:15:27;3.28;;;0.50;;
75437;SDS011;64015;49.392;15.582;2023-01-31T07:17:59;2.92;;;0.80;;
75437;SDS011;64015;49.392;15.582;2023-01-31T07:20:25;4.07;;;0.57;;
75437;SDS011;64015;49.392;15.582;2023-01-31T07:22:56;2.75;;;0.65;;
75437;SDS011;64015;49.392;15.582;2023-01-31T07:25:22;2.88;;;0.38;;
75437;SDS011;64015;49.392;15.582;2023-01-31T07:27:49;4.03;;;0.65;;
75437;SDS011;64015;49.392;15.582;2023-01-31T07:30:15;1.67;;;0.50;;
75437;SDS011;64015;49.392;15.582;2023-01-31T07:32:40;5.90;;;0.65;;
75437;SDS011;64015;49.392;15.582;2023-01-31T07:35:06;4.57;;;0.73;;
75437;SDS011;64015;49.392;15.582;2023-01-31T07:37:32;5.43;;;0.50;;
75437;SDS011;64015;49.392;15.582;2023-01-31T07:39:58;3.25;;;0.52;;
75437;SDS011;64015;49.392;15.582;2023-01-31T07:42:23;3.63;;;0.73;;
75437;SDS011;64015;49.392;15.582;2023-01-31T07:44:49;3.42;;;0.90;;
75437;SDS011;64015;49.392;15.582;2023-01-31T07:47:15;3.65;;;0.93;;
75437;SDS011;64015;49.392;15.582;2023-01-31T07:49:40;2.88;;;0.80;;
75437;SDS011;64015;49.392;15.582;2023-01-31T07:52:06;3.45;;;0.75;;
75437;SDS011;64015;49.392;15.582;2023-01-31T07:54:32;6.60;;;1.00;;
75437;SDS011;64015;49.392;15.582;2023-01-31T07:56:58;5.55;;;1.10;;
75437;SDS011;64015;49.392;15.582;2023-01-31T07:59:23;4.75;;;0.65;;
75437;SDS011;64015;49.392;15.582;2023-01-31T08:01:49;5.63;;;0.93;;
75437;SDS011;64015;49.392;15.582;2023-01-31T08:04:33;4.60;;;0.98;;
75437;SDS011;64015;49.392;15.582;2023-01-31T08:06:59;3.28;;;0.85;;
75437;SDS011;64015;49.392;15.582;2023-01-31T08:09:27;6.78;;;0.80;;
75437;SDS011;64015;49.392;15.582;2023-01-31T08:11:53;2.17;;;0.68;;
75437;SDS011;64015;49.392;15.582;2023-01-31T08:14:19;2.17;;;0.70;;
75437;SDS011;64015;49.392;15.582;2023-01-31T08:16:50;2.75;;;0.98;;
75437;SDS011;64015;49.392;15.582;2023-01-31T08:19:16;5.35;;;0.98;;
75437;SDS011;64015;49.392;15.582;2023-01-31T08:21:41;7.32;;;1.55;;
75437;SDS011;64015;49.392;15.582;2023-01-31T08:24:07;3.50;;;0.93;;
75437;SDS011;64015;49.392;15.582;2023-01-31T08:26:33;4.07;;;1.02;;
75437;SDS011;64015;49.392;15.582;2023-01-31T08:28:59;7.18;;;1.30;;
75437;SDS011;64015;49.392;15.582;2023-01-31T08:31:25;3.30;;;0.95;;
75437;SDS011;64015;49.392;15.582;2023-01-31T08:36:20;2.42;;;0.60;;
75437;SDS011;64015;49.392;15.582;2023-01-31T08:38:48;4.78;;;1.00;;
75437;SDS011;64015;49.392;15.582;2023-01-31T08:41:14;8.57;;;1.25;;
75437;SDS011;64015;49.392;15.582;2023-01-31T08:43:42;3.92;;;1.15;;
75437;SDS011;64015;49.392;15.582;2023-01-31T08:46:08;1.98;;;0.75;;
75437;SDS011;64015;49.392;15.582;2023-01-31T08:48:35;5.45;;;1.02;;
75437;SDS011;64015;49.392;15.582;2023-01-31T08:51:01;3.70;;;0.80;;
75437;SDS011;64015;49.392;15.582;2023-01-31T08:53:29;4.18;;;1.00;;
75437;SDS011;64015;49.392;15.582;2023-01-31T08:55:58;5.88;;;1.35;;
75437;SDS011;64015;49.392;15.582;2023-01-31T08:58:25;2.85;;;1.25;;
75437;SDS011;64015;49.392;15.582;2023-01-31T09:00:50;6.03;;;1.35;;
75437;SDS011;64015;49.392;15.582;2023-01-31T09:03:16;9.15;;;1.52;;
75437;SDS011;64015;49.392;15.582;2023-01-31T09:05:42;7.82;;;1.77;;
75437;SDS011;64015;49.392;15.582;2023-01-31T09:08:08;8.75;;;1.35;;
75437;SDS011;64015;49.392;15.582;2023-01-31T09:10:34;5.35;;;1.67;;
75437;SDS011;64015;49.392;15.582;2023-01-31T09:13:00;2.05;;;1.02;;
75437;SDS011;64015;49.392;15.582;2023-01-31T09:15:25;7.05;;;1.63;;
75437;SDS011;64015;49.392;15.582;2023-01-31T09:17:51;1.70;;;0.85;;
75437;SDS011;64015;49.392;15.582;2023-01-31T09:20:17;2.85;;;1.05;;
75437;SDS011;64015;49.392;15.582;2023-01-31T09:22:43;4.18;;;1.40;;
75437;SDS011;64015;49.392;15.582;2023-01-31T09:25:09;8.05;;;1.60;;
75437;SDS011;64015;49.392;15.582;2023-01-31T09:27:35;7.55;;;1.42;;
75437;SDS011;64015;49.392;15.582;2023-01-31T09:30:03;9.98;;;1.70;;
75437;SDS011;64015;49.392;15.582;2023-01-31T09:32:30;4.65;;;1.25;;
75437;SDS011;64015;49.392;15.582;2023-01-31T09:34:57;4.63;;;1.35;;
75437;SDS011;64015;49.392;15.582;2023-01-31T09:37:23;2.28;;;0.80;;
75437;SDS011;64015;49.392;15.582;2023-01-31T09:39:48;1.80;;;0.75;;
75437;SDS011;64015;49.392;15.582;2023-01-31T09:42:18;3.55;;;1.45;;
75437;SDS011;64015;49.392;15.582;2023-01-31T09:45:03;4.20;;;0.75;;
75437;SDS011;64015;49.392;15.582;2023-01-31T09:50:02;7.15;;;0.95;;
75437;SDS011;64015;49.392;15.582;2023-01-31T09:52:41;9.65;;;1.75;;
75437;SDS011;64015;49.392;15.582;2023-01-31T09:55:13;7.13;;;1.38;;
75437;SDS011;64015;49.392;15.582;2023-01-31T09:57:48;2.40;;;0.90;;
75437;SDS011;64015;49.392;15.582;2023-01-31T10:00:28;5.30;;;1.05;;
75437;SDS011;64015;49.392;15.582;2023-01-31T10:05:51;2.55;;;1.00;;
75437;SDS011;64015;49.392;15.582;2023-01-31T10:11:33;6.53;;;1.63;;
75437;SDS011;64015;49.392;15.582;2023-01-31T10:19:46;3.63;;;1.23;;
75437;SDS011;64015;49.392;15.582;2023-01-31T10:22:20;4.03;;;1.23;;
75437;SDS011;64015;49.392;15.582;2023-01-31T10:24:58;4.13;;;1.38;;
75437;SDS011;64015;49.392;15.582;2023-01-31T10:27:47;11.05;;;1.33;;
75437;SDS011;64015;49.392;15.582;2023-01-31T10:30:17;2.42;;;1.02;;
75437;SDS011;64015;49.392;15.582;2023-01-31T10:32:47;8.40;;;1.65;;
75437;SDS011;64015;49.392;15.582;2023-01-31T10:35:27;3.60;;;1.30;;
75437;SDS011;64015;49.392;15.582;2023-01-31T10:38:01;7.85;;;1.45;;
75437;SDS011;64015;49.392;15.582;2023-01-31T10:40:33;4.68;;;1.25;;
75437;SDS011;64015;49.392;15.582;2023-01-31T10:46:15;6.00;;;0.80;;
75437;SDS011;64015;49.392;15.582;2023-01-31T10:48:41;5.05;;;1.20;;
75437;SDS011;64015;49.392;15.582;2023-01-31T10:56:19;3.40;;;0.95;;
75437;SDS011;64015;49.392;15.582;2023-01-31T10:59:00;6.57;;;1.05;;
75437;SDS011;64015;49.392;15.582;2023-01-31T11:01:33;4.78;;;0.90;;
75437;SDS011;64015;49.392;15.582;2023-01-31T11:04:00;4.88;;;0.82;;
75437;SDS011;64015;49.392;15.582;2023-01-31T11:06:26;3.90;;;1.45;;
75437;SDS011;64015;49.392;15.582;2023-01-31T11:08:59;5.13;;;1.73;;
75437;SDS011;64015;49.392;15.582;2023-01-31T11:11:27;2.65;;;1.02;;
75437;SDS011;64015;49.392;15.582;2023-01-31T11:13:55;1.75;;;0.88;;
75437;SDS011;64015;49.392;15.582;2023-01-31T11:16:23;5.90;;;1.25;;
75437;SDS011;64015;49.392;15.582;2023-01-31T11:18:52;6.30;;;1.52;;
75437;SDS011;64015;49.392;15.582;2023-01-31T11:21:19;3.55;;;1.40;;
75437;SDS011;64015;49.392;15.582;2023-01-31T11:23:48;5.53;;;0.88;;
75437;SDS011;64015;49.392;15.582;2023-01-31T11:26:35;2.03;;;0.70;;
75437;SDS011;64015;49.392;15.582;2023-01-31T11:31:52;4.30;;;1.00;;
75437;SDS011;64015;49.392;15.582;2023-01-31T11:34:19;2.65;;;0.80;;
75437;SDS011;64015;49.392;15.582;2023-01-31T11:36:48;4.10;;;1.30;;
75437;SDS011;64015;49.392;15.582;2023-01-31T11:39:24;6.57;;;1.35;;
75437;SDS011;64015;49.392;15.582;2023-01-31T11:41:50;4.85;;;1.55;;
75437;SDS011;64015;49.392;15.582;2023-01-31T11:44:16;3.47;;;1.20;;
75437;SDS011;64015;49.392;15.582;2023-01-31T11:46:57;4.63;;;1.20;;
75437;SDS011;64015;49.392;15.582;2023-01-31T11:52:16;3.63;;;1.10;;
75437;SDS011;64015;49.392;15.582;2023-01-31T11:54:46;4.20;;;1.02;;
75437;SDS011;64015;49.392;15.582;2023-01-31T11:57:16;4.47;;;0.70;;
75437;SDS011;64015;49.392;15.582;2023-01-31T11:59:48;3.28;;;0.90;;
75437;SDS011;64015;49.392;15.582;2023-01-31T12:02:22;5.93;;;1.00;;
75437;SDS011;64015;49.392;15.582;2023-01-31T12:04:48;2.97;;;1.02;;
75437;SDS011;64015;49.392;15.582;2023-01-31T12:07:22;5.40;;;1.00;;
75437;SDS011;64015;49.392;15.582;2023-01-31T12:09:50;5.03;;;1.67;;
75437;SDS011;64015;49.392;15.582;2023-01-31T12:12:50;10.93;;;1.85;;
75437;SDS011;64015;49.392;15.582;2023-01-31T12:15:15;4.70;;;1.25;;
75437;SDS011;64015;49.392;15.582;2023-01-31T12:17:45;4.13;;;1.27;;
75437;SDS011;64015;49.392;15.582;2023-01-31T12:31:05;3.40;;;1.02;;
75437;SDS011;64015;49.392;15.582;2023-01-31T13:01:39;4.60;;;1.00;;
75437;SDS011;64015;49.392;15.582;2023-01-31T13:07:03;3.53;;;0.60;;
75437;SDS011;64015;49.392;15.582;2023-01-31T13:09:33;4.78;;;1.30;;
75437;SDS011;64015;49.392;15.582;2023-01-31T13:14:42;2.38;;;1.10;;
75437;SDS011;64015;49.392;15.582;2023-01-31T13:17:20;2.72;;;0.85;;
75437;SDS011;64015;49.392;15.582;2023-01-31T13:23:00;5.25;;;0.93;;
75437;SDS011;64015;49.392;15.582;2023-01-31T13:28:22;2.05;;;0.98;;
75437;SDS011;64015;49.392;15.582;2023-01-31T13:30:55;2.75;;;1.40;;
75437;SDS011;64015;49.392;15.582;2023-01-31T13:35:55;3.95;;;1.13;;
75437;SDS011;64015;49.392;15.582;2023-01-31T13:38:41;5.13;;;1.20;;
75437;SDS011;64015;49.392;15.582;2023-01-31T13:41:12;3.83;;;1.42;;
75437;SDS011;64015;49.392;15.582;2023-01-31T13:43:44;4.20;;;1.52;;
75437;SDS011;64015;49.392;15.582;2023-01-31T13:46:10;2.78;;;1.20;;
75437;SDS011;64015;49.392;15.582;2023-01-31T13:49:43;5.80;;;1.60;;
75437;SDS011;64015;49.392;15.582;2023-01-31T13:52:08;8.95;;;1.38;;
75437;SDS011;64015;49.392;15.582;2023-01-31T13:54:43;5.82;;;1.63;;
75437;SDS011;64015;49.392;15.582;2023-01-31T13:57:34;9.27;;;1.25;;
75437;SDS011;64015;49.392;15.582;2023-01-31T14:03:03;6.22;;;1.23;;
75437;SDS011;64015;49.392;15.582;2023-01-31T14:10:52;3.47;;;1.33;;
75437;SDS011;64015;49.392;15.582;2023-01-31T14:15:58;7.28;;;2.03;;
75437;SDS011;64015;49.392;15.582;2023-01-31T14:18:34;6.50;;;1.73;;
75437;SDS011;64015;49.392;15.582;2023-01-31T14:29:21;5.70;;;1.45;;
75437;SDS011;64015;49.392;15.582;2023-01-31T14:31:49;4.13;;;1.70;;
75437;SDS011;64015;49.392;15.582;2023-01-31T14:36:57;6.72;;;1.58;;
75437;SDS011;64015;49.392;15.582;2023-01-31T14:45:11;7.95;;;2.15;;
75437;SDS011;64015;49.392;15.582;2023-01-31T14:56:05;6.45;;;2.08;;
75437;SDS011;64015;49.392;15.582;2023-01-31T14:58:52;6.10;;;1.60;;
75437;SDS011;64015;49.392;15.582;2023-01-31T15:01:19;9.32;;;2.40;;
75437;SDS011;64015;49.392;15.582;2023-01-31T15:03:47;10.02;;;1.42;;
75437;SDS011;64015;49.392;15.582;2023-01-31T15:06:24;9.23;;;2.22;;
75437;SDS011;64015;49.392;15.582;2023-01-31T15:09:43;3.17;;;1.33;;
75437;SDS011;64015;49.392;15.582;2023-01-31T15:11:48;4.55;;;1.73;;
75437;SDS011;64015;49.392;15.582;2023-01-31T15:14:29;4.18;;;1.35;;
75437;SDS011;64015;49.392;15.582;2023-01-31T15:17:00;6.20;;;1.45;;
75437;SDS011;64015;49.392;15.582;2023-01-31T15:19:35;7.40;;;2.03;;
75437;SDS011;64015;49.392;15.582;2023-01-31T15:22:08;4.03;;;1.63;;
75437;SDS011;64015;49.392;15.582;2023-01-31T15:24:40;8.15;;;1.58;;
75437;SDS011;64015;49.392;15.582;2023-01-31T15:32:15;5.65;;;2.20;;
75437;SDS011;64015;49.392;15.582;2023-01-31T15:35:05;6.10;;;2.03;;
75437;SDS011;64015;49.392;15.582;2023-01-31T15:37:38;4.90;;;1.45;;
75437;SDS011;64015;49.392;15.582;2023-01-31T15:40:13;3.38;;;1.45;;
75437;SDS011;64015;49.392;15.582;2023-01-31T15:42:44;4.05;;;1.27;;
75437;SDS011;64015;49.392;15.582;2023-01-31T15:45:13;6.07;;;2.15;;
75437;SDS011;64015;49.392;15.582;2023-01-31T15:47:59;6.82;;;1.85;;
75437;SDS011;64015;49.392;15.582;2023-01-31T15:50:50;6.03;;;2.65;;
75437;SDS011;64015;49.392;15.582;2023-01-31T15:53:20;4.90;;;2.30;;
75437;SDS011;64015;49.392;15.582;2023-01-31T15:55:48;8.95;;;2.67;;
75437;SDS011;64015;49.392;15.582;2023-01-31T15:58:17;5.22;;;2.05;;
75437;SDS011;64015;49.392;15.582;2023-01-31T16:00:48;5.78;;;2.03;;
75437;SDS011;64015;49.392;15.582;2023-01-31T16:06:03;8.60;;;3.08;;
75437;SDS011;64015;49.392;15.582;2023-01-31T16:08:40;11.68;;;3.83;;
75437;SDS011;64015;49.392;15.582;2023-01-31T16:11:07;9.70;;;2.97;;
75437;SDS011;64015;49.392;15.582;2023-01-31T16:13:35;10.60;;;3.97;;
75437;SDS011;64015;49.392;15.582;2023-01-31T16:16:04;11.93;;;2.50;;
75437;SDS011;64015;49.392;15.582;2023-01-31T16:18:34;13.77;;;2.45;;
75437;SDS011;64015;49.392;15.582;2023-01-31T16:22:02;4.90;;;2.10;;
75437;SDS011;64015;49.392;15.582;2023-01-31T16:24:21;5.18;;;1.98;;
75437;SDS011;64015;49.392;15.582;2023-01-31T16:34:57;6.55;;;2.83;;
75437;SDS011;64015;49.392;15.582;2023-01-31T16:42:44;8.32;;;2.13;;
75437;SDS011;64015;49.392;15.582;2023-01-31T16:45:26;10.82;;;2.30;;
75437;SDS011;64015;49.392;15.582;2023-01-31T16:47:52;11.05;;;2.88;;
75437;SDS011;64015;49.392;15.582;2023-01-31T16:52:45;4.78;;;1.88;;
75437;SDS011;64015;49.392;15.582;2023-01-31T16:55:14;11.40;;;3.35;;
75437;SDS011;64015;49.392;15.582;2023-01-31T16:57:44;6.43;;;1.83;;
75437;SDS011;64015;49.392;15.582;2023-01-31T17:02:53;8.00;;;2.22;;
75437;SDS011;64015;49.392;15.582;2023-01-31T17:05:22;5.15;;;2.63;;
75437;SDS011;64015;49.392;15.582;2023-01-31T17:08:13;8.07;;;2.97;;
75437;SDS011;64015;49.392;15.582;2023-01-31T17:10:42;11.20;;;2.85;;
75437;SDS011;64015;49.392;15.582;2023-01-31T17:13:16;5.35;;;1.63;;
75437;SDS011;64015;49.392;15.582;2023-01-31T17:15:45;16.67;;;2.28;;
75437;SDS011;64015;49.392;15.582;2023-01-31T17:18:12;5.88;;;2.20;;
75437;SDS011;64015;49.392;15.582;2023-01-31T17:20:39;6.47;;;1.63;;
75437;SDS011;64015;49.392;15.582;2023-01-31T17:23:08;8.07;;;2.35;;
75437;SDS011;64015;49.392;15.582;2023-01-31T17:25:35;5.50;;;1.95;;
75437;SDS011;64015;49.392;15.582;2023-01-31T17:28:01;9.65;;;2.80;;
75437;SDS011;64015;49.392;15.582;2023-01-31T17:30:27;6.32;;;2.40;;
75437;SDS011;64015;49.392;15.582;2023-01-31T17:32:55;7.70;;;2.47;;
75437;SDS011;64015;49.392;15.582;2023-01-31T17:35:23;7.43;;;2.13;;
75437;SDS011;64015;49.392;15.582;2023-01-31T17:37:53;6.40;;;2.53;;
75437;SDS011;64015;49.392;15.582;2023-01-31T17:40:19;7.80;;;2.90;;
75437;SDS011;64015;49.392;15.582;2023-01-31T17:42:46;9.10;;;2.83;;
75437;SDS011;64015;49.392;15.582;2023-01-31T17:45:12;9.07;;;3.03;;
75437;SDS011;64015;49.392;15.582;2023-01-31T17:47:43;4.95;;;2.35;;
75437;SDS011;64015;49.392;15.582;2023-01-31T17:50:14;5.00;;;1.85;;
75437;SDS011;64015;49.392;15.582;2023-01-31T17:52:41;9.27;;;3.13;;
75437;SDS011;64015;49.392;15.582;2023-01-31T17:55:08;5.90;;;2.42;;
75437;SDS011;64015;49.392;15.582;2023-01-31T17:57:34;4.18;;;2.22;;
75437;SDS011;64015;49.392;15.582;2023-01-31T18:00:00;7.53;;;2.20;;
75437;SDS011;64015;49.392;15.582;2023-01-31T18:02:26;10.30;;;3.60;;
75437;SDS011;64015;49.392;15.582;2023-01-31T18:04:52;10.13;;;2.38;;
75437;SDS011;64015;49.392;15.582;2023-01-31T18:07:18;4.18;;;1.67;;